Time,TemperatureF,DewpointF,PressureIn,WindDirection,WindDirectionDegrees,WindSpeedMPH,WindSpeedGustMPH,Humidity,HourlyPrecipIn,Conditions,Clouds,dailyrainin,SoftwareType,DateUTC
2013-03-30 09:10:00,69.2,56.1,30.27,East,80,1.0,2.0,63,0.00,,,0.00,Wunderground v.1.15,2013-03-30 13:10:00,
2013-03-30 09:15:00,69.7,56.1,30.27,NE,40,0.0,7.0,62,0.00,,,0.00,Wunderground v.1.15,2013-03-30 13:15:00,
2013-03-30 09:20:00,70.4,55.4,30.27,East,80,0.0,3.0,59,0.00,,,0.00,Wunderground v.1.15,2013-03-30 13:20:00,
2013-03-30 09:25:00,70.8,56.2,30.27,East,81,3.0,7.0,60,0.00,,,0.00,Wunderground v.1.15,2013-03-30 13:25:00,
2013-03-30 09:30:00,71.0,55.5,30.27,East,89,4.0,4.0,58,0.00,,,0.00,Wunderground v.1.15,2013-03-30 13:30:00,
2013-03-30 09:35:00,71.3,55.8,30.27,ESE,115,1.0,5.0,58,0.00,,,0.00,Wunderground v.1.15,2013-03-30 13:35:00,
2013-03-30 09:40:00,71.4,54.9,30.27,East,86,2.0,2.0,56,0.00,,,0.00,Wunderground v.1.15,2013-03-30 13:40:00,
2013-03-30 09:45:00,71.6,55.6,30.27,ENE,68,0.0,5.0,57,0.00,,,0.00,Wunderground v.1.15,2013-03-30 13:45:00,
2013-03-30 09:50:00,71.7,54.7,30.27,ENE,77,4.0,4.0,55,0.00,,,0.00,Wunderground v.1.15,2013-03-30 13:50:00,
2013-03-30 09:55:00,71.6,54.6,30.27,East,95,0.0,7.0,55,0.00,,,0.00,Wunderground v.1.15,2013-03-30 13:55:00,
2013-03-30 10:00:00,71.9,53.8,30.27,ENE,77,0.0,2.0,53,0.00,,,0.00,Wunderground v.1.15,2013-03-30 14:00:00,
2013-03-30 10:05:00,72.1,54.5,30.27,SSW,197,1.0,5.0,54,0.00,,,0.00,Wunderground v.1.15,2013-03-30 14:05:00,
2013-03-30 10:10:00,72.6,55.0,30.27,ENE,70,1.0,2.0,54,0.00,,,0.00,Wunderground v.1.15,2013-03-30 14:10:00,
2013-03-30 10:15:00,72.4,54.8,30.27,ENE,72,5.0,9.0,54,0.00,,,0.00,Wunderground v.1.15,2013-03-30 14:15:00,
2013-03-30 10:20:00,72.5,54.9,30.27,East,93,0.0,4.0,54,0.00,,,0.00,Wunderground v.1.15,2013-03-30 14:20:00,
2013-03-30 10:25:00,72.5,54.4,30.27,ENE,66,8.0,10.0,53,0.00,,,0.00,Wunderground v.1.15,2013-03-30 14:25:00,
2013-03-30 10:30:00,72.1,53.5,30.27,East,79,2.0,4.0,52,0.00,,,0.00,Wunderground v.1.15,2013-03-30 14:30:00,
2013-03-30 10:35:00,72.1,55.0,30.27,South,169,2.0,6.0,55,0.00,,,0.00,Wunderground v.1.15,2013-03-30 14:35:00,
2013-03-30 10:40:00,72.2,54.1,30.27,ENE,77,0.0,2.0,53,0.00,,,0.00,Wunderground v.1.15,2013-03-30 14:40:00,
2013-03-30 10:45:00,72.6,54.5,30.28,NE,46,5.0,6.0,53,0.00,,,0.00,Wunderground v.1.15,2013-03-30 14:45:00,
2013-03-30 10:50:00,72.9,54.2,30.27,SSW,211,4.0,4.0,52,0.00,,,0.00,Wunderground v.1.15,2013-03-30 14:50:00,
2013-03-30 10:55:00,73.0,54.9,30.27,East,85,2.0,4.0,53,0.00,,,0.00,Wunderground v.1.15,2013-03-30 14:55:00,
2013-03-30 11:00:00,73.4,54.2,30.27,East,92,2.0,4.0,51,0.00,,,0.00,Wunderground v.1.15,2013-03-30 15:00:00,
2013-03-30 11:05:00,73.3,55.6,30.27,East,85,0.0,6.0,54,0.00,,,0.00,Wunderground v.1.15,2013-03-30 15:05:00,
2013-03-30 11:10:00,73.7,54.4,30.27,ESE,105,6.0,6.0,51,0.00,,,0.00,Wunderground v.1.15,2013-03-30 15:10:00,
2013-03-30 11:15:00,73.5,53.7,30.27,ENE,65,0.0,6.0,50,0.00,,,0.00,Wunderground v.1.15,2013-03-30 15:15:00,
2013-03-30 11:20:00,73.9,54.1,30.28,ENE,74,2.0,4.0,50,0.00,,,0.00,Wunderground v.1.15,2013-03-30 15:20:00,
2013-03-30 11:25:00,74.1,54.3,30.27,NE,50,0.0,5.0,50,0.00,,,0.00,Wunderground v.1.15,2013-03-30 15:25:00,
2013-03-30 11:30:00,74.6,53.6,30.27,SE,124,1.0,2.0,48,0.00,,,0.00,Wunderground v.1.15,2013-03-30 15:30:00,
2013-03-30 11:35:00,74.8,52.6,30.27,ENE,57,3.0,9.0,46,0.00,,,0.00,Wunderground v.1.15,2013-03-30 15:35:00,
2013-03-30 11:40:00,74.7,51.9,30.27,NE,43,5.0,5.0,45,0.00,,,0.00,Wunderground v.1.15,2013-03-30 15:40:00,
2013-03-30 11:45:00,74.8,53.8,30.27,NE,53,1.0,12.0,48,0.00,,,0.00,Wunderground v.1.15,2013-03-30 15:45:00,
2013-03-30 11:50:00,74.7,53.7,30.27,ENE,65,5.0,5.0,48,0.00,,,0.00,Wunderground v.1.15,2013-03-30 15:50:00,
2013-03-30 11:55:00,74.5,53.5,30.27,ESE,122,5.0,8.0,48,0.00,,,0.00,Wunderground v.1.15,2013-03-30 15:55:00,
2013-03-30 12:00:00,74.2,52.7,30.27,East,98,0.0,3.0,47,0.00,,,0.00,Wunderground v.1.15,2013-03-30 16:00:00,
2013-03-30 12:05:00,74.7,53.1,30.27,East,83,5.0,7.0,47,0.00,,,0.00,Wunderground v.1.15,2013-03-30 16:05:00,
2013-03-30 12:10:00,75.0,51.6,30.27,NNE,15,1.0,11.0,44,0.00,,,0.00,Wunderground v.1.15,2013-03-30 16:10:00,
2013-03-30 12:15:00,75.2,52.4,30.27,NW,317,1.0,11.0,45,0.00,,,0.00,Wunderground v.1.15,2013-03-30 16:15:00,
2013-03-30 12:20:00,75.6,51.5,30.27,East,94,3.0,3.0,43,0.00,,,0.00,Wunderground v.1.15,2013-03-30 16:20:00,
2013-03-30 12:25:00,75.5,51.4,30.27,ENE,74,2.0,7.0,43,0.00,,,0.00,Wunderground v.1.15,2013-03-30 16:25:00,
2013-03-30 12:30:00,75.4,52.0,30.26,North,358,1.0,3.0,44,0.00,,,0.00,Wunderground v.1.15,2013-03-30 16:30:00,
2013-03-30 12:35:00,75.2,52.4,30.26,East,87,0.0,6.0,45,0.00,,,0.00,Wunderground v.1.15,2013-03-30 16:35:00,
2013-03-30 12:40:00,75.5,51.4,30.26,ESE,107,0.0,7.0,43,0.00,,,0.00,Wunderground v.1.15,2013-03-30 16:40:00,
2013-03-30 12:45:00,75.8,51.1,30.26,ENE,72,5.0,7.0,42,0.00,,,0.00,Wunderground v.1.15,2013-03-30 16:45:00,
2013-03-30 12:50:00,75.5,50.8,30.26,ESE,122,3.0,5.0,42,0.00,,,0.00,Wunderground v.1.15,2013-03-30 16:50:00,
2013-03-30 12:55:00,75.3,51.9,30.26,NNW,345,3.0,10.0,44,0.00,,,0.00,Wunderground v.1.15,2013-03-30 16:55:00,
2013-03-30 13:00:00,75.5,51.4,30.26,NE,37,2.0,10.0,43,0.00,,,0.00,Wunderground v.1.15,2013-03-30 17:00:00,
2013-03-30 13:05:00,75.3,51.3,30.26,South,182,0.0,10.0,43,0.00,,,0.00,Wunderground v.1.15,2013-03-30 17:05:00,
2013-03-30 13:10:00,75.8,52.9,30.26,ENE,72,2.0,4.0,45,0.00,,,0.00,Wunderground v.1.15,2013-03-30 17:10:00,
2013-03-30 13:15:00,76.1,53.2,30.25,ENE,60,1.0,6.0,45,0.00,,,0.00,Wunderground v.1.15,2013-03-30 17:15:00,
2013-03-30 13:20:00,76.1,51.3,30.25,East,91,1.0,8.0,42,0.00,,,0.00,Wunderground v.1.15,2013-03-30 17:20:00,
2013-03-30 13:25:00,75.6,51.5,30.25,East,91,7.0,8.0,43,0.00,,,0.00,Wunderground v.1.15,2013-03-30 17:25:00,
2013-03-30 13:30:00,75.7,52.2,30.24,ESE,121,4.0,8.0,44,0.00,,,0.00,Wunderground v.1.15,2013-03-30 17:30:00,
2013-03-30 13:35:00,76.0,51.2,30.24,NNE,30,1.0,9.0,42,0.00,,,0.00,Wunderground v.1.15,2013-03-30 17:35:00,
2013-03-30 13:40:00,76.1,52.0,30.24,NE,35,2.0,6.0,43,0.00,,,0.00,Wunderground v.1.15,2013-03-30 17:40:00,
2013-03-30 13:45:00,76.1,52.0,30.24,East,82,1.0,8.0,43,0.00,,,0.00,Wunderground v.1.15,2013-03-30 17:45:00,
2013-03-30 13:51:00,76.3,52.2,30.24,South,170,3.0,9.0,43,0.00,,,0.00,Wunderground v.1.15,2013-03-30 17:51:00,
2013-03-30 13:56:00,76.2,52.7,30.23,SW,235,1.0,9.0,44,0.00,,,0.00,Wunderground v.1.15,2013-03-30 17:56:00,
2013-03-30 14:01:00,76.3,54.0,30.23,ENE,66,2.0,3.0,46,0.00,,,0.00,Wunderground v.1.15,2013-03-30 18:01:00,
2013-03-30 14:06:00,76.5,53.0,30.23,East,89,2.0,7.0,44,0.00,,,0.00,Wunderground v.1.15,2013-03-30 18:06:00,
2013-03-30 14:11:00,76.5,53.0,30.23,ENE,75,2.0,8.0,44,0.00,,,0.00,Wunderground v.1.15,2013-03-30 18:11:00,
2013-03-30 14:16:00,76.5,53.6,30.23,East,82,1.0,9.0,45,0.00,,,0.00,Wunderground v.1.15,2013-03-30 18:16:00,
2013-03-30 14:21:00,76.6,54.3,30.23,ENE,72,1.0,5.0,46,0.00,,,0.00,Wunderground v.1.15,2013-03-30 18:21:00,
2013-03-30 14:26:00,76.2,54.5,30.22,East,98,0.0,10.0,47,0.00,,,0.00,Wunderground v.1.15,2013-03-30 18:26:00,
2013-03-30 14:31:00,77.0,55.8,30.22,SSE,149,0.0,3.0,48,0.00,,,0.00,Wunderground v.1.15,2013-03-30 18:31:00,
2013-03-30 14:36:00,77.0,55.2,30.22,South,181,1.0,6.0,47,0.00,,,0.00,Wunderground v.1.15,2013-03-30 18:36:00,
2013-03-30 14:41:00,77.0,54.6,30.22,ESE,106,0.0,3.0,46,0.00,,,0.00,Wunderground v.1.15,2013-03-30 18:41:00,
2013-03-30 14:46:00,77.0,55.8,30.21,ESE,102,1.0,10.0,48,0.00,,,0.00,Wunderground v.1.15,2013-03-30 18:46:00,
2013-03-30 14:51:00,76.5,54.2,30.21,East,93,1.0,5.0,46,0.00,,,0.00,Wunderground v.1.15,2013-03-30 18:51:00,
2013-03-30 14:56:00,75.8,54.7,30.21,ENE,60,4.0,10.0,48,0.00,,,0.00,Wunderground v.1.15,2013-03-30 18:56:00,
2013-03-30 15:01:00,76.0,54.9,30.20,East,80,3.0,4.0,48,0.00,,,0.00,Wunderground v.1.15,2013-03-30 19:01:00,
2013-03-30 15:06:00,76.3,56.3,30.20,NNE,33,1.0,5.0,50,0.00,,,0.00,Wunderground v.1.15,2013-03-30 19:06:00,
2013-03-30 15:11:00,76.8,56.8,30.20,East,97,6.0,6.0,50,0.00,,,0.00,Wunderground v.1.15,2013-03-30 19:11:00,
2013-03-30 15:16:00,76.9,57.4,30.20,NE,56,2.0,10.0,51,0.00,,,0.00,Wunderground v.1.15,2013-03-30 19:16:00,
2013-03-30 15:21:00,76.8,55.0,30.19,ESE,115,0.0,6.0,47,0.00,,,0.00,Wunderground v.1.15,2013-03-30 19:21:00,
2013-03-30 15:26:00,76.8,54.5,30.19,NNE,33,3.0,10.0,46,0.00,,,0.00,Wunderground v.1.15,2013-03-30 19:26:00,
2013-03-30 15:31:00,76.3,54.6,30.19,ENE,76,0.0,5.0,47,0.00,,,0.00,Wunderground v.1.15,2013-03-30 19:31:00,
2013-03-30 15:36:00,76.5,54.2,30.19,SE,133,3.0,6.0,46,0.00,,,0.00,Wunderground v.1.15,2013-03-30 19:36:00,
2013-03-30 15:41:00,76.1,54.4,30.19,SE,136,1.0,9.0,47,0.00,,,0.00,Wunderground v.1.15,2013-03-30 19:41:00,
2013-03-30 15:46:00,76.2,55.6,30.19,ESE,104,0.0,9.0,49,0.00,,,0.00,Wunderground v.1.15,2013-03-30 19:46:00,
2013-03-30 15:50:00,76.8,55.6,30.19,ESE,105,0.0,3.0,48,0.00,,,0.00,Wunderground v.1.15,2013-03-30 19:50:00,
2013-03-30 15:55:00,76.6,55.4,30.19,ENE,74,3.0,8.0,48,0.00,,,0.00,Wunderground v.1.15,2013-03-30 19:55:00,
2013-03-30 16:01:00,76.3,55.2,30.19,ESE,112,5.0,6.0,48,0.00,,,0.00,Wunderground v.1.15,2013-03-30 20:01:00,
2013-03-30 16:06:00,75.7,55.7,30.19,ESE,104,2.0,6.0,50,0.00,,,0.00,Wunderground v.1.15,2013-03-30 20:06:00,
2013-03-30 16:11:00,76.1,55.5,30.19,NE,51,1.0,5.0,49,0.00,,,0.00,Wunderground v.1.15,2013-03-30 20:11:00,
2013-03-30 16:16:00,75.6,54.5,30.19,ENE,67,0.0,9.0,48,0.00,,,0.00,Wunderground v.1.15,2013-03-30 20:16:00,
2013-03-30 16:21:00,75.8,54.7,30.19,ENE,58,0.0,4.0,48,0.00,,,0.00,Wunderground v.1.15,2013-03-30 20:21:00,
2013-03-30 16:26:00,75.5,55.0,30.18,ENE,68,1.0,8.0,49,0.00,,,0.00,Wunderground v.1.15,2013-03-30 20:26:00,
2013-03-30 16:31:00,75.4,54.9,30.18,East,84,1.0,4.0,49,0.00,,,0.00,Wunderground v.1.15,2013-03-30 20:31:00,
2013-03-30 16:36:00,75.9,55.9,30.18,East,97,5.0,8.0,50,0.00,,,0.00,Wunderground v.1.15,2013-03-30 20:36:00,
2013-03-30 16:41:00,75.7,55.2,30.18,ESE,112,0.0,5.0,49,0.00,,,0.00,Wunderground v.1.15,2013-03-30 20:41:00,
2013-03-30 16:46:00,75.6,53.9,30.18,East,82,4.0,5.0,47,0.00,,,0.00,Wunderground v.1.15,2013-03-30 20:46:00,
2013-03-30 16:51:00,75.5,54.4,30.18,ENE,68,1.0,3.0,48,0.00,,,0.00,Wunderground v.1.15,2013-03-30 20:51:00,
2013-03-30 16:57:00,75.8,55.3,30.18,East,89,0.0,3.0,49,0.00,,,0.00,Wunderground v.1.15,2013-03-30 20:57:00,
2013-03-30 17:02:00,76.2,55.6,30.18,East,98,3.0,5.0,49,0.00,,,0.00,Wunderground v.1.15,2013-03-30 21:02:00,
2013-03-30 17:07:00,76.1,55.5,30.18,ENE,77,0.0,5.0,49,0.00,,,0.00,Wunderground v.1.15,2013-03-30 21:07:00,
2013-03-30 17:12:00,76.3,54.6,30.18,ESE,114,3.0,3.0,47,0.00,,,0.00,Wunderground v.1.15,2013-03-30 21:12:00,
2013-03-30 17:17:00,76.2,55.1,30.18,ESE,119,0.0,7.0,48,0.00,,,0.00,Wunderground v.1.15,2013-03-30 21:17:00,
2013-03-30 17:22:00,75.7,55.7,30.18,East,99,3.0,7.0,50,0.00,,,0.00,Wunderground v.1.15,2013-03-30 21:22:00,
2013-03-30 17:27:00,75.6,55.6,30.18,ENE,74,0.0,7.0,50,0.00,,,0.00,Wunderground v.1.15,2013-03-30 21:27:00,
2013-03-30 17:32:00,76.1,55.5,30.18,ESE,102,3.0,4.0,49,0.00,,,0.00,Wunderground v.1.15,2013-03-30 21:32:00,
2013-03-30 17:37:00,75.6,55.1,30.18,SSE,167,6.0,6.0,49,0.00,,,0.00,Wunderground v.1.15,2013-03-30 21:37:00,
2013-03-30 17:42:00,75.2,55.3,30.18,ESE,115,3.0,5.0,50,0.00,,,0.00,Wunderground v.1.15,2013-03-30 21:42:00,
2013-03-30 17:48:00,74.9,54.4,30.18,SE,129,0.0,12.0,49,0.00,,,0.00,Wunderground v.1.15,2013-03-30 21:48:00,
2013-03-30 17:53:00,75.1,55.2,30.18,ENE,77,0.0,2.0,50,0.00,,,0.00,Wunderground v.1.15,2013-03-30 21:53:00,
2013-03-30 17:58:00,75.4,56.0,30.18,East,95,3.0,3.0,51,0.00,,,0.00,Wunderground v.1.15,2013-03-30 21:58:00,
2013-03-30 18:03:00,74.9,55.6,30.18,ESE,112,5.0,7.0,51,0.00,,,0.00,Wunderground v.1.15,2013-03-30 22:03:00,
2013-03-30 18:08:00,74.4,55.6,30.18,ENE,60,0.0,7.0,52,0.00,,,0.00,Wunderground v.1.15,2013-03-30 22:08:00,
2013-03-30 18:13:00,74.2,55.4,30.18,ESE,114,6.0,6.0,52,0.00,,,0.00,Wunderground v.1.15,2013-03-30 22:13:00,
2013-03-30 18:18:00,73.9,55.2,30.18,ENE,58,1.0,6.0,52,0.00,,,0.00,Wunderground v.1.15,2013-03-30 22:18:00,
2013-03-30 18:23:00,74.2,55.4,30.18,East,94,6.0,6.0,52,0.00,,,0.00,Wunderground v.1.15,2013-03-30 22:23:00,
2013-03-30 18:28:00,74.1,55.9,30.18,ENE,77,0.0,7.0,53,0.00,,,0.00,Wunderground v.1.15,2013-03-30 22:28:00,
2013-03-30 18:33:00,74.1,55.3,30.18,East,101,1.0,4.0,52,0.00,,,0.00,Wunderground v.1.15,2013-03-30 22:33:00,
2013-03-30 18:38:00,73.9,55.2,30.18,ESE,118,4.0,6.0,52,0.00,,,0.00,Wunderground v.1.15,2013-03-30 22:38:00,
2013-03-30 18:43:00,73.6,55.4,30.18,SE,136,0.0,3.0,53,0.00,,,0.00,Wunderground v.1.15,2013-03-30 22:43:00,
2013-03-30 18:48:00,73.8,55.1,30.18,ESE,111,1.0,5.0,52,0.00,,,0.00,Wunderground v.1.15,2013-03-30 22:48:00,
2013-03-30 18:53:00,73.6,55.4,30.18,East,91,3.0,6.0,53,0.00,,,0.00,Wunderground v.1.15,2013-03-30 22:53:00,
2013-03-30 18:58:00,73.1,55.5,30.18,East,90,1.0,6.0,54,0.00,,,0.00,Wunderground v.1.15,2013-03-30 22:58:00,
2013-03-30 19:03:00,72.9,55.3,30.19,NE,48,0.0,4.0,54,0.00,,,0.00,Wunderground v.1.15,2013-03-30 23:03:00,
2013-03-30 19:08:00,72.9,55.8,30.19,ESE,110,1.0,4.0,55,0.00,,,0.00,Wunderground v.1.15,2013-03-30 23:08:00,
2013-03-30 19:13:00,72.6,55.5,30.19,East,93,0.0,4.0,55,0.00,,,0.00,Wunderground v.1.15,2013-03-30 23:13:00,
2013-03-30 19:18:00,71.8,54.8,30.19,ESE,112,2.0,10.0,55,0.00,,,0.00,Wunderground v.1.15,2013-03-30 23:18:00,
2013-03-30 19:23:00,71.1,54.6,30.18,ENE,72,2.0,5.0,56,0.00,,,0.00,Wunderground v.1.15,2013-03-30 23:23:00,
2013-03-30 19:28:00,70.6,54.6,30.18,East,86,0.0,6.0,57,0.00,,,0.00,Wunderground v.1.15,2013-03-30 23:28:00,
2013-03-30 19:33:00,70.2,54.2,30.19,NNE,22,3.0,6.0,57,0.00,,,0.00,Wunderground v.1.15,2013-03-30 23:33:00,
2013-03-30 19:38:00,69.9,54.4,30.19,ESE,123,3.0,6.0,58,0.00,,,0.00,Wunderground v.1.15,2013-03-30 23:38:00,
2013-03-30 19:43:00,69.6,54.6,30.19,ESE,104,0.0,4.0,59,0.00,,,0.00,Wunderground v.1.15,2013-03-30 23:43:00,
2013-03-30 19:48:00,69.4,54.9,30.19,East,101,0.0,4.0,60,0.00,,,0.00,Wunderground v.1.15,2013-03-30 23:48:00,
2013-03-30 19:53:00,69.1,54.6,30.19,ENE,75,0.0,1.0,60,0.00,,,0.00,Wunderground v.1.15,2013-03-30 23:53:00,
2013-03-30 19:58:00,68.9,54.9,30.19,ESE,112,0.0,3.0,61,0.00,,,0.00,Wunderground v.1.15,2013-03-30 23:58:00,
2013-03-30 20:03:00,68.8,55.2,30.19,East,79,0.0,4.0,62,0.00,,,0.00,Wunderground v.1.15,2013-03-31 00:03:00,
2013-03-30 20:08:00,68.7,55.2,30.19,East,89,0.0,4.0,62,0.00,,,0.00,Wunderground v.1.15,2013-03-31 00:08:00,
2013-03-30 20:13:00,68.5,55.4,30.19,East,96,0.0,1.0,63,0.00,,,0.00,Wunderground v.1.15,2013-03-31 00:13:00,
2013-03-30 20:18:00,68.4,55.3,30.19,ESE,103,0.0,1.0,63,0.00,,,0.00,Wunderground v.1.15,2013-03-31 00:18:00,
2013-03-30 20:24:00,68.3,55.6,30.19,East,87,0.0,2.0,64,0.00,,,0.00,Wunderground v.1.15,2013-03-31 00:24:00,
2013-03-30 20:29:00,68.3,55.6,30.19,East,85,1.0,4.0,64,0.00,,,0.00,Wunderground v.1.15,2013-03-31 00:29:00,
2013-03-30 20:34:00,68.4,56.2,30.19,ESE,105,0.0,4.0,65,0.00,,,0.00,Wunderground v.1.15,2013-03-31 00:34:00,
2013-03-30 20:39:00,68.4,56.6,30.20,East,94,0.0,4.0,66,0.00,,,0.00,Wunderground v.1.15,2013-03-31 00:39:00,
2013-03-30 20:45:00,68.3,56.5,30.20,ESE,114,0.0,2.0,66,0.00,,,0.00,Wunderground v.1.15,2013-03-31 00:45:00,
2013-03-30 20:50:00,68.3,56.5,30.20,ESE,103,0.0,1.0,66,0.00,,,0.00,Wunderground v.1.15,2013-03-31 00:50:00,
2013-03-30 20:55:00,68.1,56.3,30.20,ESE,104,0.0,2.0,66,0.00,,,0.00,Wunderground v.1.15,2013-03-31 00:55:00,
2013-03-30 21:00:00,68.0,56.2,30.20,ESE,121,0.0,2.0,66,0.00,,,0.00,Wunderground v.1.15,2013-03-31 01:00:00,
2013-03-30 21:05:00,68.0,56.2,30.20,East,100,0.0,2.0,66,0.00,,,0.00,Wunderground v.1.15,2013-03-31 01:05:00,
2013-03-30 21:10:00,67.8,56.0,30.20,ESE,122,0.0,0.0,66,0.00,,,0.00,Wunderground v.1.15,2013-03-31 01:10:00,
2013-03-30 21:15:00,67.6,55.8,30.20,ESE,111,0.0,2.0,66,0.00,,,0.00,Wunderground v.1.15,2013-03-31 01:15:00,
2013-03-30 21:20:00,67.6,55.8,30.20,SE,133,0.0,0.0,66,0.00,,,0.00,Wunderground v.1.15,2013-03-31 01:20:00,
2013-03-30 21:25:00,67.6,55.8,30.20,SSE,166,0.0,3.0,66,0.00,,,0.00,Wunderground v.1.15,2013-03-31 01:25:00,
2013-03-30 21:30:00,67.5,55.7,30.21,ESE,111,0.0,3.0,66,0.00,,,0.00,Wunderground v.1.15,2013-03-31 01:30:00,
2013-03-30 21:35:00,67.5,55.7,30.21,East,93,0.0,4.0,66,0.00,,,0.00,Wunderground v.1.15,2013-03-31 01:35:00,
2013-03-30 21:40:00,67.5,55.7,30.21,East,96,0.0,1.0,66,0.00,,,0.00,Wunderground v.1.15,2013-03-31 01:40:00,
2013-03-30 21:45:00,67.3,55.5,30.21,ESE,112,0.0,3.0,66,0.00,,,0.00,Wunderground v.1.15,2013-03-31 01:45:00,
2013-03-30 21:51:00,67.2,55.5,30.22,SE,125,0.0,0.0,66,0.00,,,0.00,Wunderground v.1.15,2013-03-31 01:51:00,
2013-03-30 21:56:00,67.1,55.4,30.22,SE,124,0.0,1.0,66,0.00,,,0.00,Wunderground v.1.15,2013-03-31 01:56:00,
2013-03-30 22:00:00,66.9,55.6,30.22,ESE,122,0.0,0.0,67,0.00,,,0.00,Wunderground v.1.15,2013-03-31 02:00:00,
2013-03-30 22:05:00,66.8,55.5,30.22,ESE,113,2.0,2.0,67,0.00,,,0.00,Wunderground v.1.15,2013-03-31 02:05:00,
2013-03-30 22:10:00,66.8,55.5,30.22,ESE,111,0.0,0.0,67,0.00,,,0.00,Wunderground v.1.15,2013-03-31 02:10:00,
2013-03-30 22:15:00,66.7,55.4,30.22,East,101,0.0,1.0,67,0.00,,,0.00,Wunderground v.1.15,2013-03-31 02:15:00,
2013-03-30 22:20:00,66.5,55.2,30.22,ESE,121,0.0,0.0,67,0.00,,,0.00,Wunderground v.1.15,2013-03-31 02:20:00,
2013-03-30 22:25:00,66.5,55.6,30.22,ESE,110,2.0,2.0,68,0.00,,,0.00,Wunderground v.1.15,2013-03-31 02:25:00,
2013-03-30 22:30:00,66.5,55.6,30.22,ESE,107,0.0,0.0,68,0.00,,,0.00,Wunderground v.1.15,2013-03-31 02:30:00,
2013-03-30 22:35:00,66.4,55.5,30.22,ESE,104,0.0,1.0,68,0.00,,,0.00,Wunderground v.1.15,2013-03-31 02:35:00,
2013-03-30 22:40:00,66.4,55.5,30.22,ESE,111,0.0,1.0,68,0.00,,,0.00,Wunderground v.1.15,2013-03-31 02:40:00,
2013-03-30 22:45:00,66.3,55.4,30.22,ESE,113,0.0,1.0,68,0.00,,,0.00,Wunderground v.1.15,2013-03-31 02:45:00,
2013-03-30 22:50:00,66.1,55.6,30.22,ESE,112,0.0,1.0,69,0.00,,,0.00,Wunderground v.1.15,2013-03-31 02:50:00,
2013-03-30 22:55:00,65.8,55.3,30.22,ESE,110,0.0,1.0,69,0.00,,,0.00,Wunderground v.1.15,2013-03-31 02:55:00,
2013-03-30 23:00:00,65.8,55.7,30.22,East,96,0.0,0.0,70,0.00,,,0.00,Wunderground v.1.15,2013-03-31 03:00:00,
2013-03-30 23:05:00,65.8,55.7,30.22,ESE,103,0.0,0.0,70,0.00,,,0.00,Wunderground v.1.15,2013-03-31 03:05:00,
2013-03-30 23:10:00,65.8,55.7,30.22,ESE,117,0.0,0.0,70,0.00,,,0.00,Wunderground v.1.15,2013-03-31 03:10:00,
2013-03-30 23:15:00,65.7,55.6,30.22,ESE,102,0.0,0.0,70,0.00,,,0.00,Wunderground v.1.15,2013-03-31 03:15:00,
2013-03-30 23:20:00,65.6,55.9,30.22,ESE,111,0.0,0.0,71,0.00,,,0.00,Wunderground v.1.15,2013-03-31 03:20:00,
2013-03-30 23:25:00,65.6,55.9,30.22,SSE,157,0.0,2.0,71,0.00,,,0.00,Wunderground v.1.15,2013-03-31 03:25:00,
2013-03-30 23:30:00,65.4,55.7,30.22,SE,136,0.0,0.0,71,0.00,,,0.00,Wunderground v.1.15,2013-03-31 03:30:00,
2013-03-30 23:36:00,65.4,56.1,30.22,SE,134,0.0,1.0,72,0.00,,,0.00,Wunderground v.1.15,2013-03-31 03:36:00,
2013-03-30 23:41:00,65.5,56.2,30.22,ESE,121,0.0,0.0,72,0.00,,,0.00,Wunderground v.1.15,2013-03-31 03:41:00,
2013-03-30 23:46:00,65.6,55.9,30.22,ESE,108,0.0,1.0,71,0.00,,,0.00,Wunderground v.1.15,2013-03-31 03:46:00,
2013-03-30 23:52:00,65.7,56.0,30.22,East,95,0.0,2.0,71,0.00,,,0.00,Wunderground v.1.15,2013-03-31 03:52:00,
2013-03-30 23:57:00,65.8,56.1,30.22,East,88,0.0,2.0,71,0.00,,,0.00,Wunderground v.1.15,2013-03-31 03:57:00,